Time;durP1;ratioP1;P1;durP2;ratioP2;P2;SDS_P1;SDS_P2;PMS_P1;PMS_P2;Temp;Humidity;BMP_temperature;BMP_pressure;BME280_temperature;BME280_humidity;BME280_pressure;Samples;Min_cycle;Max_cycle;Signal;HPM_P1;HPM_P2
2024/04/12 00:02:05;;;;;;;0.10;0.10;;;;;;;-139.19;100.00;56970.53;5491263;26;20454;-63
2024/04/12 00:05:29;;;;;;;0.10;0.10;;;;;;;-139.19;100.00;56970.53;5491196;26;19998;-63
2024/04/12 00:08:53;;;;;;;0.10;0.10;;;;;;;-139.19;100.00;56970.53;5489771;26;19994;-63
2024/04/12 00:12:19;;;;;;;1.17;0.43;;;;;;;-139.19;100.00;56970.53;5454318;26;20007;-63
2024/04/12 00:15:43;;;;;;;0.00;0.00;;;;;;;-139.19;100.00;56970.53;5454222;26;19999;-63
2024/04/12 00:19:12;;;;;;;0.05;0.05;;;;;;;-139.19;100.00;56970.53;5454263;26;19991;-63
2024/04/12 00:22:38;;;;;;;0.17;0.17;;;;;;;-139.19;100.00;56970.53;5454202;26;20003;-63
2024/04/12 00:26:02;;;;;;;0.00;0.00;;;;;;;-139.19;100.00;56970.53;5454131;26;20423;-63
2024/04/12 00:29:39;;;;;;;0.17;0.17;;;;;;;-139.19;100.00;56970.53;5454038;26;19990;-64
2024/04/12 00:33:10;;;;;;;0.55;0.20;;;;;;;-139.19;100.00;56970.53;5454102;26;20019;-63
2024/04/12 00:36:42;;;;;;;0.10;0.10;;;;;;;-139.19;100.00;56970.53;5453950;26;19997;-63
2024/04/12 00:40:07;;;;;;;0.00;0.00;;;;;;;-139.19;100.00;56970.53;5455238;26;20054;-63
2024/04/12 00:43:36;;;;;;;0.03;0.03;;;;;;;-139.19;100.00;56970.53;5453900;26;20026;-63
2024/04/12 00:47:04;;;;;;;0.25;0.25;;;;;;;-139.19;100.00;56970.53;5453845;26;20463;-63
2024/04/12 00:50:29;;;;;;;0.10;0.10;;;;;;;-139.19;100.00;56970.53;5453742;26;19999;-63
2024/04/12 00:53:57;;;;;;;0.10;0.10;;;;;;;-139.19;100.00;56970.53;5453643;26;19999;-63
2024/04/12 00:57:22;;;;;;;0.10;0.10;;;;;;;-139.19;100.00;56970.53;5453626;26;20009;-63
2024/04/12 01:00:47;;;;;;;0.00;0.00;;;;;;;-139.19;100.00;56970.53;5453549;26;20339;-63
2024/04/12 01:04:12;;;;;;;0.20;0.20;;;;;;;-139.19;100.00;56970.53;5453508;26;19991;-63
2024/04/12 01:07:37;;;;;;;0.05;0.05;;;;;;;-139.19;100.00;56970.53;5453438;26;20006;-63
2024/04/12 01:11:01;;;;;;;0.43;0.40;;;;;;;-139.19;100.00;56970.53;5452924;26;20006;-63
2024/04/12 01:14:25;;;;;;;0.03;0.03;;;;;;;-139.19;100.00;56970.53;5453350;26;19997;-63
2024/04/12 01:17:49;;;;;;;0.98;0.95;;;;;;;-139.19;100.00;56970.53;5453250;26;19986;-63
2024/04/12 01:21:13;;;;;;;0.20;0.20;;;;;;;-139.19;100.00;56970.53;5453103;26;20027;-63
2024/04/12 01:24:38;;;;;;;0.85;0.85;;;;;;;-139.19;100.00;56970.53;5453177;26;19995;-63
2024/04/12 01:28:03;;;;;;;1.17;0.90;;;;;;;-139.19;100.00;56970.53;5453111;26;20003;-63
2024/04/12 01:31:27;;;;;;;0.13;0.13;;;;;;;-139.19;100.00;56970.53;5453125;26;19991;-64
2024/04/12 01:34:29;;;;;;;0.10;0.10;;;;;;;-139.19;100.00;56970.53;5452995;26;19995;-63
2024/04/12 01:37:57;;;;;;;0.10;0.10;;;;;;;-139.19;100.00;56970.53;5463037;26;20008;-63
2024/04/12 01:41:22;;;;;;;0.10;0.10;;;;;;;-139.19;100.00;56970.53;5457744;26;19999;-63
2024/04/12 01:48:28;;;;;;;0.43;0.30;;;;;;;-139.19;100.00;56970.53;5453279;26;20096;-64
2024/04/12 01:51:55;;;;;;;0.10;0.10;;;;;;;-139.19;100.00;56970.53;5452708;26;20002;-63
2024/04/12 01:55:20;;;;;;;0.10;0.10;;;;;;;-139.19;100.00;56970.53;5452562;26;20435;-63
2024/04/12 01:58:48;;;;;;;0.15;0.15;;;;;;;-139.19;100.00;56970.53;5478344;26;20014;-61
2024/04/12 02:02:12;;;;;;;0.32;0.32;;;;;;;-139.19;100.00;56970.53;5469869;26;20322;-61
2024/04/12 02:05:37;;;;;;;0.05;0.05;;;;;;;-139.19;100.00;56970.53;5487774;26;20442;-61
2024/04/12 02:09:04;;;;;;;3.15;0.68;;;;;;;-139.19;100.00;56970.53;5487698;26;20407;-61
2024/04/12 02:12:28;;;;;;;0.20;0.20;;;;;;;-139.19;100.00;56970.53;5468331;26;20002;-61
2024/04/12 02:15:53;;;;;;;0.20;0.20;;;;;;;-139.19;100.00;56970.53;5467836;26;20318;-61
2024/04/12 02:19:21;;;;;;;0.10;0.10;;;;;;;-139.19;100.00;56970.53;5479988;26;20002;-61
2024/04/12 02:22:45;;;;;;;0.10;0.10;;;;;;;-139.19;100.00;56970.53;5472774;26;19998;-61
2024/04/12 02:26:10;;;;;;;0.10;0.10;;;;;;;-139.19;100.00;56970.53;5456387;26;20013;-61
2024/04/12 02:29:36;;;;;;;0.20;0.20;;;;;;;-139.19;100.00;56970.53;5483366;26;20009;-61
2024/04/12 02:33:00;;;;;;;0.20;0.20;;;;;;;-139.19;100.00;56970.53;5471896;26;20009;-61
2024/04/12 02:35:44;;;;;;;0.10;0.10;;;;;;;1.87;97.72;99980.34;5478523;26;20539;-61
2024/04/12 02:39:12;;;;;;;0.30;0.30;;;;;;;-139.19;100.00;56970.53;5485781;26;20004;-61
2024/04/12 02:42:36;;;;;;;0.10;0.10;;;;;;;-139.19;100.00;56970.53;5480287;26;20009;-61
2024/04/12 02:46:00;;;;;;;0.25;0.25;;;;;;;-139.19;100.00;56970.53;5491281;26;20013;-61
2024/04/12 02:49:24;;;;;;;2.55;0.80;;;;;;;-139.19;100.00;56970.53;5470719;26;20511;-61
2024/04/12 02:52:49;;;;;;;0.13;0.13;;;;;;;-139.19;100.00;56970.53;5456506;26;20535;-61
2024/04/12 02:56:13;;;;;;;0.10;0.10;;;;;;;-139.19;100.00;56970.53;5478108;26;20001;-61
2024/04/12 02:59:38;;;;;;;1.05;0.20;;;;;;;-139.19;100.00;56970.53;5476037;26;20462;-61
2024/04/12 03:03:04;;;;;;;0.10;0.10;;;;;;;-139.19;100.00;56970.53;5455457;26;19998;-61
2024/04/12 03:06:32;;;;;;;0.32;0.20;;;;;;;-139.19;100.00;56970.53;5456156;26;20335;-61
2024/04/12 03:09:55;;;;;;;2.05;0.50;;;;;;;-139.19;100.00;56970.53;5486183;26;20434;-61
2024/04/12 03:13:19;;;;;;;0.10;0.10;;;;;;;-139.19;100.00;56970.53;5458064;26;20540;-61
2024/04/12 03:16:46;;;;;;;0.10;0.10;;;;;;;-139.19;100.00;56970.53;5480578;26;20006;-61
2024/04/12 03:20:10;;;;;;;0.13;0.13;;;;;;;-139.19;100.00;56970.53;5455048;26;20010;-61
2024/04/12 03:23:34;;;;;;;0.10;0.10;;;;;;;-139.19;100.00;56970.53;5460118;26;20035;-61
2024/04/12 03:26:58;;;;;;;0.10;0.10;;;;;;;-139.19;100.00;56970.53;5465711;26;20006;-61
2024/04/12 03:30:24;;;;;;;0.30;0.30;;;;;;;-139.19;100.00;56970.53;5471314;26;20446;-62
2024/04/12 03:33:49;;;;;;;0.10;0.10;;;;;;;-139.19;100.00;56970.53;5491103;26;20128;-61
2024/04/12 03:37:23;;;;;;;0.32;0.32;;;;;;;-139.19;100.00;56970.53;5468814;26;20002;-61
2024/04/12 03:40:47;;;;;;;0.10;0.10;;;;;;;-139.19;100.00;56970.53;5472522;26;20074;-61
2024/04/12 03:44:11;;;;;;;0.15;0.15;;;;;;;-139.19;100.00;56970.53;5471232;26;19994;-61
2024/04/12 03:47:37;;;;;;;0.20;0.20;;;;;;;-139.19;100.00;56970.53;5454674;26;20052;-61
2024/04/12 03:51:06;;;;;;;0.10;0.10;;;;;;;-139.19;100.00;56970.53;5454751;26;20451;-61
2024/04/12 03:54:30;;;;;;;0.35;0.20;;;;;;;-139.19;100.00;56970.53;5470802;26;20086;-61
2024/04/12 03:57:55;;;;;;;0.20;0.20;;;;;;;-139.19;100.00;56970.53;5476853;26;20073;-61
2024/04/12 04:01:18;;;;;;;0.10;0.10;;;;;;;-139.19;100.00;56970.53;5476409;26;20002;-61
2024/04/12 04:04:47;;;;;;;0.13;0.13;;;;;;;-139.19;100.00;56970.53;5487425;26;20002;-62
2024/04/12 04:08:11;;;;;;;0.17;0.17;;;;;;;-139.19;100.00;56970.53;5454488;26;19999;-61
2024/04/12 04:11:42;;;;;;;0.10;0.10;;;;;;;-139.19;100.00;56970.53;5455149;26;20017;-61
2024/04/12 04:15:06;;;;;;;0.10;0.10;;;;;;;-139.19;100.00;56970.53;5469314;26;20034;-61
2024/04/12 04:18:32;;;;;;;0.10;0.10;;;;;;;-139.19;100.00;56970.53;5477683;26;20021;-63
2024/04/12 04:22:01;;;;;;;0.10;0.10;;;;;;;-139.19;100.00;56970.53;5468375;26;19998;-63
2024/04/12 04:25:25;;;;;;;0.30;0.30;;;;;;;-139.19;100.00;56970.53;5457537;26;20423;-63
2024/04/12 04:28:51;;;;;;;0.10;0.10;;;;;;;-139.19;100.00;56970.53;5481760;26;20017;-63
2024/04/12 04:32:15;;;;;;;0.10;0.10;;;;;;;-139.19;100.00;56970.53;5475882;26;20002;-63
2024/04/12 04:35:39;;;;;;;0.30;0.30;;;;;;;-139.19;100.00;56970.53;5454872;26;20507;-64
2024/04/12 04:39:03;;;;;;;0.40;0.40;;;;;;;-139.19;100.00;56970.53;5474175;26;19998;-63
2024/04/12 04:42:27;;;;;;;0.20;0.20;;;;;;;-139.19;100.00;56970.53;5462820;26;19995;-64
2024/04/12 04:45:51;;;;;;;0.40;0.40;;;;;;;-139.19;100.00;56970.53;5452085;26;20002;-63
2024/04/12 04:49:16;;;;;;;0.20;0.20;;;;;;;-139.19;100.00;56970.53;5452100;26;20343;-63
2024/04/12 04:52:40;;;;;;;0.10;0.10;;;;;;;-139.19;100.00;56970.53;5451917;26;20044;-64
2024/04/12 04:56:05;;;;;;;0.08;0.08;;;;;;;-139.19;100.00;56970.53;5453513;26;20005;-63
2024/04/12 04:59:32;;;;;;;0.20;0.20;;;;;;;-139.19;100.00;56970.53;5453276;26;20006;-63
2024/04/12 05:02:56;;;;;;;0.20;0.20;;;;;;;-139.19;100.00;56970.53;5453331;26;20442;-63
2024/04/12 05:06:24;;;;;;;0.00;0.00;;;;;;;-139.19;100.00;56970.53;5453179;26;20507;-63
2024/04/12 05:09:53;;;;;;;0.20;0.20;;;;;;;-139.19;100.00;56970.53;5453341;26;20040;-64
2024/04/12 05:13:17;;;;;;;0.30;0.20;;;;;;;-139.19;100.00;56970.53;5453079;26;20511;-63
2024/04/12 05:16:42;;;;;;;0.10;0.10;;;;;;;-139.19;100.00;56970.53;5453077;26;20002;-63
2024/04/12 05:20:14;;;;;;;0.43;0.43;;;;;;;-139.19;100.00;56970.53;5453172;26;19991;-63
2024/04/12 05:23:38;;;;;;;0.10;0.10;;;;;;;-139.19;100.00;56970.53;5452886;26;20323;-64
2024/04/12 05:27:01;;;;;;;0.05;0.05;;;;;;;;;;5452934;26;20511;-64
2024/04/12 05:30:25;;;;;;;;;;;;;;;-139.19;100.00;56970.53;5453426;26;20002;-64
2024/04/12 05:33:49;;;;;;;0.63;0.63;;;;;;;-139.19;100.00;56970.53;5452786;26;19924;-64
2024/04/12 05:37:15;;;;;;;0.15;0.15;;;;;;;-139.19;100.00;56970.53;5452855;26;20010;-64
2024/04/12 05:41:04;;;;;;;0.10;0.10;;;;;;;-139.19;100.00;56970.53;5452849;26;19991;-64
2024/04/12 05:44:26;;;;;;;0.10;0.10;;;;;;;-139.19;100.00;56970.53;5452233;26;20067;-64
2024/04/12 05:47:54;;;;;;;0.17;0.17;;;;;;;-139.19;100.00;56970.53;5452699;26;20036;-64
2024/04/12 05:51:18;;;;;;;0.10;0.10;;;;;;;-139.19;100.00;56970.53;5452658;26;20088;-64
2024/04/12 05:54:45;;;;;;;0.35;0.35;;;;;;;-139.19;100.00;56970.53;5452484;26;20006;-64
2024/04/12 05:58:09;;;;;;;0.20;0.20;;;;;;;-139.19;100.00;56970.53;5453065;26;20007;-64
2024/04/12 06:01:33;;;;;;;0.10;0.10;;;;;;;-139.19;100.00;56970.53;5446690;26;20007;-64
2024/04/12 06:05:00;;;;;;;0.20;0.20;;;;;;;-139.19;100.00;56970.53;5456547;26;20021;-64
2024/04/12 06:08:24;;;;;;;0.10;0.10;;;;;;;-139.19;100.00;56970.53;5456777;26;20339;-64
2024/04/12 06:11:56;;;;;;;0.10;0.10;;;;;;;-139.19;100.00;56970.53;5456423;26;19987;-64
2024/04/12 06:15:21;;;;;;;0.10;0.10;;;;;;;-139.19;100.00;56970.53;5456384;26;20452;-64
2024/04/12 06:18:50;;;;;;;0.38;0.38;;;;;;;-139.19;100.00;56970.53;5456308;26;20316;-64
2024/04/12 06:22:15;;;;;;;0.17;0.17;;;;;;;-139.19;100.00;56970.53;5456153;26;20351;-64
2024/04/12 06:25:44;;;;;;;0.13;0.13;;;;;;;-139.19;100.00;56970.53;5456289;26;20344;-64
2024/04/12 06:29:09;;;;;;;0.40;0.40;;;;;;;-139.19;100.00;56970.53;5456176;26;19994;-64
2024/04/12 06:32:33;;;;;;;1.80;0.88;;;;;;;-139.19;100.00;56970.53;5456085;26;20377;-64
2024/04/12 06:36:04;;;;;;;0.73;0.73;;;;;;;-139.19;100.00;56970.53;5455777;26;20064;-64
2024/04/12 06:39:27;;;;;;;1.33;0.75;;;;;;;-139.19;100.00;56970.53;5455839;26;19994;-63
2024/04/12 06:42:53;;;;;;;;;;;;;;;-139.19;100.00;56970.53;5456178;26;19995;-63
2024/04/12 06:46:16;;;;;;;0.40;0.40;;;;;;;-139.19;100.00;56970.53;5455628;26;20254;-64
2024/04/12 06:49:44;;;;;;;1.02;0.52;;;;;;;-139.19;100.00;56970.53;5455591;26;19991;-64
2024/04/12 06:53:08;;;;;;;0.32;0.32;;;;;;;-139.19;100.00;56970.53;5455519;26;19999;-64
2024/04/12 06:56:34;;;;;;;0.20;0.20;;;;;;;-139.19;100.00;56970.53;5455509;26;20327;-64
2024/04/12 07:00:00;;;;;;;28.42;0.93;;;;;;;-139.19;100.00;56970.53;5488824;26;20000;-64
2024/04/12 07:03:25;;;;;;;0.63;0.60;;;;;;;-139.19;100.00;56970.53;5491996;26;19986;-64
2024/04/12 07:06:51;;;;;;;0.47;0.45;;;;;;;-139.19;100.00;56970.53;5492046;26;20006;-64
2024/04/12 07:10:14;;;;;;;0.68;0.68;;;;;;;-139.19;100.00;56970.53;5491353;26;20018;-64
2024/04/12 07:13:39;;;;;;;0.60;0.60;;;;;;;-139.19;100.00;56970.53;5491923;26;19986;-64
2024/04/12 07:17:19;;;;;;;7.75;0.80;;;;;;;-139.19;100.00;56970.53;5491902;26;20001;-64
2024/04/12 07:20:48;;;;;;;0.82;0.82;;;;;;;-139.19;100.00;56970.53;5491675;26;19990;-64
2024/04/12 07:24:15;;;;;;;0.70;0.70;;;;;;;-139.19;100.00;56970.53;5491691;26;20066;-64
2024/04/12 07:27:41;;;;;;;0.70;0.50;;;;;;;-139.19;100.00;56970.53;5491735;26;20006;-64
2024/04/12 07:31:05;;;;;;;1.00;0.70;;;;;;;-139.19;100.00;56970.53;5491604;26;20422;-64
2024/04/12 07:34:32;;;;;;;2.67;1.75;;;;;;;-139.19;100.00;56970.53;5491538;26;20490;-64
2024/04/12 07:37:59;;;;;;;2.20;1.67;;;;;;;-139.19;100.00;56970.53;5491218;26;19998;-64
2024/04/12 07:41:24;;;;;;;0.88;0.68;;;;;;;-139.19;100.00;56970.53;5491135;26;20077;-64
2024/04/12 07:44:48;;;;;;;0.70;0.70;;;;;;;-139.19;100.00;56970.53;5491151;26;20002;-64
2024/04/12 07:48:22;;;;;;;0.85;0.57;;;;;;;-139.19;100.00;56970.53;5491149;26;20005;-64
2024/04/12 07:51:47;;;;;;;0.43;0.43;;;;;;;-139.19;100.00;56970.53;5491075;26;20008;-65
2024/04/12 07:55:23;;;;;;;1.15;0.75;;;;;;;-139.19;100.00;56970.53;5491008;26;19994;-65
2024/04/12 07:59:10;;;;;;;2.10;0.98;;;;;;;-139.19;100.00;56970.53;5490952;26;20402;-65
2024/04/12 08:02:35;;;;;;;1.08;0.70;;;;;;;-139.19;100.00;56970.53;5490923;26;19994;-65
2024/04/12 08:06:05;;;;;;;0.85;0.70;;;;;;;-139.19;100.00;56970.53;5491331;26;19994;-65
2024/04/12 08:09:40;;;;;;;1.35;1.00;;;;;;;-139.19;100.00;56970.53;5491139;26;20470;-65
2024/04/12 08:13:10;;;;;;;2.88;1.08;;;;;;;-139.19;100.00;56970.53;5491088;26;20487;-64
2024/04/12 08:16:40;;;;;;;1.10;0.80;;;;;;;-139.19;100.00;56970.53;5491007;26;20018;-65
2024/04/12 08:20:13;;;;;;;2.47;0.93;;;;;;;-139.19;100.00;56970.53;5490325;26;20040;-65
2024/04/12 08:23:43;;;;;;;1.88;1.02;;;;;;;-139.19;100.00;56970.53;5490501;26;20391;-65
2024/04/12 08:27:09;;;;;;;2.00;0.82;;;;;;;-139.19;100.00;56970.53;5490559;26;20380;-65
2024/04/12 08:30:33;;;;;;;4.47;1.55;;;;;;;-139.19;100.00;56970.53;5490474;26;19994;-65
2024/04/12 08:33:57;;;;;;;2.65;1.23;;;;;;;-139.19;100.00;56970.53;5490463;26;20002;-65
2024/04/12 08:37:30;;;;;;;0.80;0.80;;;;;;;-139.19;100.00;56970.53;5490388;26;20066;-64
2024/04/12 08:40:58;;;;;;;0.95;0.77;;;;;;;-139.19;100.00;56970.53;5490327;26;19994;-65
2024/04/12 08:44:23;;;;;;;0.70;0.60;;;;;;;-139.19;100.00;56970.53;5490184;26;20040;-65
2024/04/12 08:47:56;;;;;;;1.00;0.55;;;;;;;-139.19;100.00;56970.53;5490216;26;20022;-65
2024/04/12 08:51:22;;;;;;;;;;;;;;;-139.19;100.00;56970.53;5490784;26;20036;-65
2024/04/12 08:54:54;;;;;;;7.22;0.63;;;;;;;-139.19;100.00;56970.53;5490063;26;19930;-65
2024/04/12 08:58:23;;;;;;;1.95;0.35;;;;;;;-139.19;100.00;56970.53;5490032;26;20002;-64
2024/04/12 09:01:50;;;;;;;0.30;0.20;;;;;;;-139.19;100.00;56970.53;5490249;26;20026;-64
2024/04/12 09:05:15;;;;;;;0.50;0.38;;;;;;;-139.19;100.00;56970.53;5490182;26;19998;-64
2024/04/12 09:08:40;;;;;;;0.32;0.25;;;;;;;-139.19;100.00;56970.53;5490160;26;19994;-64
2024/04/12 09:12:12;;;;;;;1.20;0.50;;;;;;;-139.19;100.00;56970.53;5489837;26;19994;-64
2024/04/12 09:15:40;;;;;;;0.40;0.40;;;;;;;-139.19;100.00;56970.53;5489818;26;20322;-64
2024/04/12 09:19:13;;;;;;;0.52;0.38;;;;;;;-139.19;100.00;56970.53;5489742;26;19994;-64
2024/04/12 09:22:41;;;;;;;1.95;0.85;;;;;;;-139.19;100.00;56970.53;5489592;26;19998;-64
2024/04/12 09:26:22;;;;;;;0.93;0.40;;;;;;;-139.19;100.00;56970.53;5489578;26;20404;-64
2024/04/12 09:29:54;;;;;;;2.55;0.73;;;;;;;-139.19;100.00;56970.53;5489461;26;20364;-64
2024/04/12 09:33:26;;;;;;;0.40;0.40;;;;;;;-139.19;100.00;56970.53;5491914;26;20382;-64
2024/04/12 09:37:01;;;;;;;0.30;0.30;;;;;;;-139.19;100.00;56970.53;5493046;26;20446;-64
2024/04/12 09:40:28;;;;;;;1.27;0.52;;;;;;;-139.19;100.00;56970.53;5492933;26;20002;-64
2024/04/12 09:43:54;;;;;;;1.85;0.50;;;;;;;-139.19;100.00;56970.53;5492809;26;19994;-63
2024/04/12 10:40:04;;;;;;;0.25;0.20;;;;;;;-139.19;100.00;56970.53;5493700;26;20071;-66
2024/04/12 10:43:31;;;;;;;0.15;0.13;;;;;;;-139.19;100.00;56970.53;5492882;26;20448;-66
2024/04/12 10:46:58;;;;;;;0.68;0.45;;;;;;;-139.19;100.00;56970.53;5500480;26;20016;-66
2024/04/12 10:50:23;;;;;;;0.25;0.22;;;;;;;-139.19;100.00;56970.53;5509039;26;20450;-66
2024/04/12 10:53:50;;;;;;;0.43;0.20;;;;;;;-139.19;100.00;56970.53;5490308;26;20442;-66
2024/04/12 10:57:14;;;;;;;0.40;0.40;;;;;;;-139.19;100.00;56970.53;5491404;26;20012;-66
2024/04/12 11:00:41;;;;;;;0.05;0.05;;;;;;;-139.19;100.00;56970.53;5491125;26;20009;-66
2024/04/12 11:04:05;;;;;;;1.88;0.38;;;;;;;-139.19;100.00;56970.53;5490839;26;19998;-66
2024/04/12 11:07:30;;;;;;;0.20;0.20;;;;;;;-139.19;100.00;56970.53;5490586;26;20009;-66
2024/04/12 11:10:54;;;;;;;1.10;0.80;;;;;;;-139.19;100.00;56970.53;5506428;26;20002;-66
2024/04/12 11:14:27;;;;;;;1.98;0.57;;;;;;;-139.19;100.00;56970.53;5491320;26;20033;-65
2024/04/12 11:32:55;;;;;;;0.45;0.30;;;;;;;-139.19;100.00;56970.53;5505852;26;20325;-63
2024/04/12 11:36:22;;;;;;;0.20;0.20;;;;;;;-139.19;100.00;56970.53;5491133;26;20002;-63
2024/04/12 11:39:47;;;;;;;0.20;0.20;;;;;;;-139.19;100.00;56970.53;5490798;26;20070;-63
2024/04/12 11:43:13;;;;;;;0.20;0.20;;;;;;;-139.19;100.00;56970.53;5497011;26;20555;-62
2024/04/12 11:46:39;;;;;;;0.40;0.40;;;;;;;-139.19;100.00;56970.53;5526387;26;20038;-63
2024/04/12 11:50:10;;;;;;;0.38;0.38;;;;;;;-139.19;100.00;56970.53;5491108;26;20057;-62
2024/04/12 11:53:34;;;;;;;0.52;0.40;;;;;;;-139.19;100.00;56970.53;5492766;26;20017;-63
2024/04/12 11:57:01;;;;;;;0.30;0.30;;;;;;;-139.19;100.00;56970.53;5490249;26;20543;-63
2024/04/12 12:00:27;;;;;;;0.20;0.20;;;;;;;-139.19;100.00;56970.53;5497629;26;20002;-62
2024/04/12 12:03:51;;;;;;;0.57;0.57;;;;;;;-139.19;100.00;56970.53;5489837;26;20073;-62
2024/04/12 12:07:16;;;;;;;0.10;0.10;;;;;;;-139.19;100.00;56970.53;5489372;26;20353;-62
2024/04/12 12:10:41;;;;;;;0.32;0.32;;;;;;;-139.19;100.00;56970.53;5489924;26;20014;-62
2024/04/12 12:14:05;;;;;;;0.20;0.20;;;;;;;-139.19;100.00;56970.53;5513921;26;20037;-63
2024/04/12 12:17:30;;;;;;;0.73;0.35;;;;;;;-139.19;100.00;56970.53;5498392;26;20070;-62
2024/04/12 12:20:56;;;;;;;0.80;0.43;;;;;;;-139.19;100.00;56970.53;5510374;26;20438;-73
2024/04/12 12:24:19;;;;;;;0.20;0.20;;;;;;;-139.19;100.00;56970.53;5514312;26;20005;-72
2024/04/12 12:27:43;;;;;;;0.13;0.13;;;;;;;-139.19;100.00;56970.53;5526152;26;20333;-72
2024/04/12 12:31:07;;;;;;;1.10;0.70;;;;;;;-139.19;100.00;56970.53;5490758;26;20002;-72
2024/04/12 12:34:36;;;;;;;0.57;0.40;;;;;;;-139.19;100.00;56970.53;5489851;26;20002;-73
2024/04/12 12:38:01;;;;;;;0.38;0.38;;;;;;;-139.19;100.00;56970.53;5489167;26;20006;-73
2024/04/12 12:41:25;;;;;;;0.20;0.20;;;;;;;-139.19;100.00;56970.53;5489696;26;20002;-72
2024/04/12 12:44:49;;;;;;;1.13;0.43;;;;;;;-139.19;100.00;56970.53;5489558;26;20042;-72
2024/04/12 12:48:19;;;;;;;0.10;0.10;;;;;;;-139.19;100.00;56970.53;5489681;26;20020;-72
2024/04/12 12:51:43;;;;;;;2.15;0.93;;;;;;;-139.19;100.00;56970.53;5488903;26;20067;-73
2024/04/12 12:55:07;;;;;;;0.30;0.30;;;;;;;-139.19;100.00;56970.53;5508677;26;20009;-72
2024/04/12 12:58:33;;;;;;;1.48;0.70;;;;;;;-139.19;100.00;56970.53;5510514;26;19997;-72
2024/04/12 13:01:57;;;;;;;12.32;0.85;;;;;;;-139.19;100.00;56970.53;5512620;26;20009;-72
2024/04/12 13:05:21;;;;;;;0.00;0.00;;;;;;;-139.19;100.00;56970.53;5524832;26;20006;-72
2024/04/12 13:08:46;;;;;;;0.20;0.20;;;;;;;-139.19;100.00;56970.53;5510802;26;19997;-73
2024/04/12 13:12:10;;;;;;;1.90;1.10;;;;;;;-139.19;100.00;56970.53;5513154;26;20317;-73
2024/04/12 13:15:37;;;;;;;0.10;0.10;;;;;;;-139.19;100.00;56970.53;5490536;26;20010;-74
2024/04/12 13:19:07;;;;;;;0.20;0.20;;;;;;;-139.19;100.00;56970.53;5505700;26;20414;-74
2024/04/12 13:22:32;;;;;;;0.30;0.30;;;;;;;-139.19;100.00;56970.53;5491724;26;19994;-75
2024/04/12 13:25:56;;;;;;;0.60;0.60;;;;;;;-139.19;100.00;56970.53;5501816;26;20356;-73
2024/04/12 13:29:29;;;;;;;0.85;0.73;;;;;;;-139.19;100.00;56970.53;5513845;26;20001;-63
2024/04/12 13:32:58;;;;;;;0.57;0.45;;;;;;;-139.19;100.00;56970.53;5518403;26;19994;-62
2024/04/12 13:36:25;;;;;;;0.90;0.55;;;;;;;-139.19;100.00;56970.53;5517865;26;20023;-62
2024/04/12 13:39:49;;;;;;;0.20;0.20;;;;;;;-139.19;100.00;56970.53;5503947;26;20103;-66
2024/04/12 13:43:16;;;;;;;0.60;0.52;;;;;;;-139.19;100.00;56970.53;5485713;26;20364;-66
2024/04/12 13:54:08;;;;;;;0.10;0.10;;;;;;;-139.19;100.00;56970.53;5509022;26;20024;-66
2024/04/12 13:57:34;;;;;;;0.88;0.43;;;;;;;-139.19;100.00;56970.53;5509900;26;20710;-66
2024/04/12 14:00:58;;;;;;;0.35;0.30;;;;;;;-139.19;100.00;56970.53;5518516;26;20082;-66
2024/04/12 14:04:27;;;;;;;0.40;0.40;;;;;;;-139.19;100.00;56970.53;5515613;26;20030;-66
2024/04/12 14:07:51;;;;;;;1.00;0.50;;;;;;;-139.19;100.00;56970.53;5487317;26;20002;-66
2024/04/12 14:11:15;;;;;;;0.10;0.10;;;;;;;-139.19;100.00;56970.53;5488199;26;20037;-65
2024/04/12 14:14:39;;;;;;;0.55;0.32;;;;;;;-139.19;100.00;56970.53;5487930;26;20538;-65
2024/04/12 14:18:03;;;;;;;0.45;0.35;;;;;;;-139.19;100.00;56970.53;5487874;26;19998;-66
2024/04/12 14:21:27;;;;;;;1.95;0.55;;;;;;;-139.19;100.00;56970.53;5495075;26;19998;-66
2024/04/12 14:25:02;;;;;;;0.20;0.20;;;;;;;-139.19;100.00;56970.53;5505571;26;20002;-66
2024/04/12 14:28:29;;;;;;;0.25;0.25;;;;;;;-139.19;100.00;56970.53;5491660;26;19998;-66
2024/04/12 14:31:55;;;;;;;1.10;0.80;;;;;;;-139.19;100.00;56970.53;5526774;26;19997;-66
2024/04/12 14:35:19;;;;;;;0.13;0.13;;;;;;;-139.19;100.00;56970.53;5491328;26;20001;-66
2024/04/12 14:38:44;;;;;;;0.88;0.30;;;;;;;-139.19;100.00;56970.53;5491152;26;20010;-65
2024/04/12 14:42:08;;;;;;;0.30;0.30;;;;;;;-139.19;100.00;56970.53;5511688;26;20073;-66
2024/04/12 14:45:33;;;;;;;0.10;0.10;;;;;;;-139.19;100.00;56970.53;5527288;26;19997;-66
2024/04/12 14:48:57;;;;;;;0.35;0.35;;;;;;;-139.19;100.00;56970.53;5499939;26;20010;-66
2024/04/12 14:52:22;;;;;;;0.30;0.30;;;;;;;-139.19;100.00;56970.53;5494955;26;20002;-66
2024/04/12 14:55:49;;;;;;;0.20;0.20;;;;;;;-139.19;100.00;56970.53;5526256;26;20325;-66
2024/04/12 14:59:14;;;;;;;0.73;0.52;;;;;;;-139.19;100.00;56970.53;5521835;26;20099;-66
2024/04/12 15:50:28;;;;;;;0.85;0.70;;;;;;;-139.19;100.00;56970.53;5471010;26;20482;-66
2024/04/12 15:53:58;;;;;;;0.20;0.20;;;;;;;-139.19;100.00;56970.53;5469842;26;19998;-67
2024/04/12 16:12:12;;;;;;;0.10;0.10;;;;;;;-139.19;100.00;56970.53;5501094;26;20012;-62
2024/04/12 16:15:36;;;;;;;0.60;0.45;;;;;;;-139.19;100.00;56970.53;5527550;26;20590;-62
2024/04/12 16:19:00;;;;;;;0.63;0.40;;;;;;;-139.19;100.00;56970.53;5523714;26;20445;-62
2024/04/12 16:22:24;;;;;;;0.50;0.40;;;;;;;-139.19;100.00;56970.53;5514317;26;20045;-62
2024/04/12 16:25:49;;;;;;;0.03;0.03;;;;;;;-139.19;100.00;56970.53;5526648;26;20500;-62
2024/04/12 16:29:16;;;;;;;0.20;0.20;;;;;;;-139.19;100.00;56970.53;5494574;26;19998;-62
2024/04/12 16:32:40;;;;;;;0.10;0.10;;;;;;;-139.19;100.00;56970.53;5490627;26;20376;-62
2024/04/12 16:36:05;;;;;;;0.22;0.22;;;;;;;-139.19;100.00;56970.53;5490708;26;20009;-62
2024/04/12 16:39:29;;;;;;;9.82;0.75;;;;;;;-139.19;100.00;56970.53;5492787;26;19998;-62
2024/04/12 16:42:53;;;;;;;0.38;0.32;;;;;;;-139.19;100.00;56970.53;5525022;26;19998;-62
2024/04/12 16:46:17;;;;;;;0.38;0.38;;;;;;;-139.19;100.00;56970.53;5513908;26;19998;-62
2024/04/12 16:49:40;;;;;;;0.20;0.20;;;;;;;-139.19;100.00;56970.53;5490623;26;20034;-62
2024/04/12 16:53:04;;;;;;;0.80;0.70;;;;;;;-139.19;100.00;56970.53;5507270;26;19998;-62
2024/04/12 16:56:29;;;;;;;0.38;0.35;;;;;;;-139.19;100.00;56970.53;5490238;26;20438;-62
2024/04/12 16:59:54;;;;;;;0.30;0.28;;;;;;;-139.19;100.00;56970.53;5498322;26;20002;-62
2024/04/12 17:03:21;;;;;;;0.45;0.38;;;;;;;-139.19;100.00;56970.53;5491151;26;20002;-62
2024/04/12 17:06:45;;;;;;;0.50;0.50;;;;;;;-139.19;100.00;56970.53;5490572;26;19998;-62
2024/04/12 17:10:09;;;;;;;0.40;0.40;;;;;;;-139.19;100.00;56970.53;5490039;26;20002;-66
2024/04/12 17:13:33;;;;;;;0.77;0.38;;;;;;;-139.19;100.00;56970.53;5492384;26;20002;-66
2024/04/12 17:16:57;;;;;;;1.17;0.65;;;;;;;-139.19;100.00;56970.53;5492321;26;20435;-66
2024/04/12 17:20:21;;;;;;;0.65;0.45;;;;;;;-139.19;100.00;56970.53;5490030;26;19998;-77
2024/04/12 17:23:46;;;;;;;0.10;0.10;;;;;;;-139.19;100.00;56970.53;5490278;26;20046;-77
2024/04/12 17:27:10;;;;;;;0.20;0.20;;;;;;;-139.19;100.00;56970.53;5517919;26;20337;-71
2024/04/12 17:30:33;;;;;;;0.20;0.20;;;;;;;-139.19;100.00;56970.53;5505909;26;20069;-66
2024/04/12 17:33:57;;;;;;;0.28;0.28;;;;;;;-139.19;100.00;56970.53;5518278;26;20009;-66
2024/04/12 17:37:21;;;;;;;2.03;1.00;;;;;;;-139.19;100.00;56970.53;5490854;26;20009;-66
2024/04/12 17:40:49;;;;;;;5.68;0.30;;;;;;;-139.19;100.00;56970.53;5491622;26;20009;-66
2024/04/12 17:44:12;;;;;;;0.65;0.30;;;;;;;-139.19;100.00;56970.53;5523906;26;20008;-65
2024/04/12 17:47:36;;;;;;;0.10;0.10;;;;;;;-139.19;100.00;56970.53;5512383;26;19998;-66
2024/04/12 17:50:23;;;;;;;0.20;0.20;;;;;;;19.13;99.64;77370.00;5521233;26;19998;-66
2024/04/12 17:53:47;;;;;;;4.13;0.80;;;;;;;-139.19;100.00;56970.53;5503878;26;20339;-66
2024/04/12 17:57:12;;;;;;;1.65;0.50;;;;;;;-139.19;100.00;56970.53;5528266;26;20325;-65
2024/04/12 18:00:35;;;;;;;3.10;1.35;;;;;;;-139.19;100.00;56970.53;5473067;26;20442;-66